sensor_id;sensor_type;location;lat;lon;timestamp;P1;durP1;ratioP1;P2;durP2;ratioP2
39982;SDS011;25670;44.782;10.356;2024-01-11T00:01:18;48.00;;;18.83;;
39982;SDS011;25670;44.782;10.356;2024-01-11T00:03:44;46.08;;;18.80;;
39982;SDS011;25670;44.782;10.356;2024-01-11T00:06:11;38.90;;;17.50;;
39982;SDS011;25670;44.782;10.356;2024-01-11T00:08:37;37.05;;;17.42;;
39982;SDS011;25670;44.782;10.356;2024-01-11T00:11:03;37.05;;;18.17;;
39982;SDS011;25670;44.782;10.356;2024-01-11T00:13:30;39.45;;;18.02;;
39982;SDS011;25670;44.782;10.356;2024-01-11T00:15:56;46.58;;;19.33;;
39982;SDS011;25670;44.782;10.356;2024-01-11T00:18:22;35.53;;;18.48;;
39982;SDS011;25670;44.782;10.356;2024-01-11T00:20:48;39.35;;;18.58;;
39982;SDS011;25670;44.782;10.356;2024-01-11T00:23:15;37.60;;;18.40;;
39982;SDS011;25670;44.782;10.356;2024-01-11T00:25:41;34.95;;;17.40;;
39982;SDS011;25670;44.782;10.356;2024-01-11T00:28:07;40.95;;;17.08;;
39982;SDS011;25670;44.782;10.356;2024-01-11T00:30:33;37.50;;;17.52;;
39982;SDS011;25670;44.782;10.356;2024-01-11T00:33:00;37.85;;;16.67;;
39982;SDS011;25670;44.782;10.356;2024-01-11T00:35:26;42.72;;;16.83;;
39982;SDS011;25670;44.782;10.356;2024-01-11T00:37:53;42.80;;;16.25;;
39982;SDS011;25670;44.782;10.356;2024-01-11T00:40:19;31.45;;;16.08;;
39982;SDS011;25670;44.782;10.356;2024-01-11T00:42:45;36.42;;;16.02;;
39982;SDS011;25670;44.782;10.356;2024-01-11T00:45:11;32.95;;;16.02;;
39982;SDS011;25670;44.782;10.356;2024-01-11T00:47:37;32.10;;;15.57;;
39982;SDS011;25670;44.782;10.356;2024-01-11T00:50:04;30.20;;;14.95;;
39982;SDS011;25670;44.782;10.356;2024-01-11T00:52:30;44.58;;;17.45;;
39982;SDS011;25670;44.782;10.356;2024-01-11T00:54:57;31.02;;;14.48;;
39982;SDS011;25670;44.782;10.356;2024-01-11T00:57:23;31.98;;;14.70;;
39982;SDS011;25670;44.782;10.356;2024-01-11T00:59:50;35.85;;;16.33;;
39982;SDS011;25670;44.782;10.356;2024-01-11T01:02:16;30.50;;;14.52;;
39982;SDS011;25670;44.782;10.356;2024-01-11T01:04:42;27.90;;;15.00;;
39982;SDS011;25670;44.782;10.356;2024-01-11T01:07:09;25.85;;;13.73;;
39982;SDS011;25670;44.782;10.356;2024-01-11T01:09:35;29.38;;;14.13;;
39982;SDS011;25670;44.782;10.356;2024-01-11T01:12:01;32.17;;;14.80;;
39982;SDS011;25670;44.782;10.356;2024-01-11T01:14:28;28.80;;;13.48;;
39982;SDS011;25670;44.782;10.356;2024-01-11T01:16:54;26.23;;;14.15;;
39982;SDS011;25670;44.782;10.356;2024-01-11T01:19:21;25.88;;;14.10;;
39982;SDS011;25670;44.782;10.356;2024-01-11T01:21:47;29.15;;;14.40;;
39982;SDS011;25670;44.782;10.356;2024-01-11T01:24:14;31.77;;;15.23;;
39982;SDS011;25670;44.782;10.356;2024-01-11T01:26:40;35.30;;;15.02;;
39982;SDS011;25670;44.782;10.356;2024-01-11T01:29:07;29.35;;;14.35;;
39982;SDS011;25670;44.782;10.356;2024-01-11T01:31:33;28.98;;;13.95;;
39982;SDS011;25670;44.782;10.356;2024-01-11T01:34:03;32.70;;;13.48;;
39982;SDS011;25670;44.782;10.356;2024-01-11T01:36:30;39.28;;;15.55;;
39982;SDS011;25670;44.782;10.356;2024-01-11T01:38:56;31.20;;;14.77;;
39982;SDS011;25670;44.782;10.356;2024-01-11T01:41:22;32.63;;;15.30;;
39982;SDS011;25670;44.782;10.356;2024-01-11T01:43:48;31.92;;;14.82;;
39982;SDS011;25670;44.782;10.356;2024-01-11T01:46:15;25.23;;;13.85;;
39982;SDS011;25670;44.782;10.356;2024-01-11T01:48:48;37.85;;;14.68;;
39982;SDS011;25670;44.782;10.356;2024-01-11T01:51:16;32.08;;;14.23;;
39982;SDS011;25670;44.782;10.356;2024-01-11T01:53:42;30.65;;;14.48;;
39982;SDS011;25670;44.782;10.356;2024-01-11T01:56:11;33.20;;;14.85;;
39982;SDS011;25670;44.782;10.356;2024-01-11T01:58:38;31.05;;;14.18;;
39982;SDS011;25670;44.782;10.356;2024-01-11T02:01:04;33.05;;;13.77;;
39982;SDS011;25670;44.782;10.356;2024-01-11T02:03:31;29.48;;;14.20;;
39982;SDS011;25670;44.782;10.356;2024-01-11T02:05:59;34.92;;;13.55;;
39982;SDS011;25670;44.782;10.356;2024-01-11T02:08:26;26.27;;;13.55;;
39982;SDS011;25670;44.782;10.356;2024-01-11T02:10:53;31.92;;;14.25;;
39982;SDS011;25670;44.782;10.356;2024-01-11T02:13:20;33.85;;;14.43;;
39982;SDS011;25670;44.782;10.356;2024-01-11T02:15:47;36.22;;;15.45;;
39982;SDS011;25670;44.782;10.356;2024-01-11T02:18:13;27.92;;;14.55;;
39982;SDS011;25670;44.782;10.356;2024-01-11T02:20:39;30.40;;;13.77;;
39982;SDS011;25670;44.782;10.356;2024-01-11T02:23:06;29.98;;;14.60;;
39982;SDS011;25670;44.782;10.356;2024-01-11T02:25:37;25.48;;;13.77;;
39982;SDS011;25670;44.782;10.356;2024-01-11T02:28:03;34.50;;;15.40;;
39982;SDS011;25670;44.782;10.356;2024-01-11T02:30:30;31.05;;;15.15;;
39982;SDS011;25670;44.782;10.356;2024-01-11T02:32:56;29.08;;;14.55;;
39982;SDS011;25670;44.782;10.356;2024-01-11T02:35:22;36.35;;;14.90;;
39982;SDS011;25670;44.782;10.356;2024-01-11T02:37:50;28.83;;;12.88;;
39982;SDS011;25670;44.782;10.356;2024-01-11T02:40:17;25.90;;;13.05;;
39982;SDS011;25670;44.782;10.356;2024-01-11T02:42:44;24.33;;;12.48;;
39982;SDS011;25670;44.782;10.356;2024-01-11T02:45:11;23.75;;;12.77;;
39982;SDS011;25670;44.782;10.356;2024-01-11T02:47:38;28.40;;;14.02;;
39982;SDS011;25670;44.782;10.356;2024-01-11T02:50:05;25.10;;;12.90;;
39982;SDS011;25670;44.782;10.356;2024-01-11T02:52:33;29.52;;;13.82;;
39982;SDS011;25670;44.782;10.356;2024-01-11T02:54:59;20.95;;;12.15;;
39982;SDS011;25670;44.782;10.356;2024-01-11T02:57:26;30.48;;;12.98;;
39982;SDS011;25670;44.782;10.356;2024-01-11T02:59:52;34.28;;;14.38;;
39982;SDS011;25670;44.782;10.356;2024-01-11T03:02:18;26.83;;;13.82;;
39982;SDS011;25670;44.782;10.356;2024-01-11T03:04:44;23.77;;;13.27;;
39982;SDS011;25670;44.782;10.356;2024-01-11T03:07:11;26.45;;;13.93;;
39982;SDS011;25670;44.782;10.356;2024-01-11T03:09:37;33.47;;;15.10;;
39982;SDS011;25670;44.782;10.356;2024-01-11T03:12:04;28.90;;;15.00;;
39982;SDS011;25670;44.782;10.356;2024-01-11T03:14:32;31.05;;;14.73;;
39982;SDS011;25670;44.782;10.356;2024-01-11T03:16:58;26.58;;;13.27;;
39982;SDS011;25670;44.782;10.356;2024-01-11T03:19:25;27.95;;;14.00;;
39982;SDS011;25670;44.782;10.356;2024-01-11T03:21:51;29.75;;;14.20;;
39982;SDS011;25670;44.782;10.356;2024-01-11T03:24:17;27.83;;;13.70;;
39982;SDS011;25670;44.782;10.356;2024-01-11T03:26:43;30.67;;;15.10;;
39982;SDS011;25670;44.782;10.356;2024-01-11T03:29:09;22.98;;;13.32;;
39982;SDS011;25670;44.782;10.356;2024-01-11T03:31:35;27.70;;;13.70;;
39982;SDS011;25670;44.782;10.356;2024-01-11T03:34:03;26.63;;;12.85;;
39982;SDS011;25670;44.782;10.356;2024-01-11T03:36:30;26.50;;;13.07;;
39982;SDS011;25670;44.782;10.356;2024-01-11T03:38:56;25.45;;;13.27;;
39982;SDS011;25670;44.782;10.356;2024-01-11T03:41:22;27.92;;;12.40;;
39982;SDS011;25670;44.782;10.356;2024-01-11T03:43:49;26.40;;;13.95;;
39982;SDS011;25670;44.782;10.356;2024-01-11T03:46:16;25.25;;;13.18;;
39982;SDS011;25670;44.782;10.356;2024-01-11T03:48:42;23.38;;;12.30;;
39982;SDS011;25670;44.782;10.356;2024-01-11T03:51:08;24.15;;;12.43;;
39982;SDS011;25670;44.782;10.356;2024-01-11T03:53:35;27.35;;;13.05;;
39982;SDS011;25670;44.782;10.356;2024-01-11T03:56:02;30.00;;;12.30;;
39982;SDS011;25670;44.782;10.356;2024-01-11T03:58:29;24.20;;;12.02;;
39982;SDS011;25670;44.782;10.356;2024-01-11T04:00:55;25.50;;;12.88;;
39982;SDS011;25670;44.782;10.356;2024-01-11T04:03:22;22.15;;;11.98;;
39982;SDS011;25670;44.782;10.356;2024-01-11T04:05:49;23.02;;;12.55;;
39982;SDS011;25670;44.782;10.356;2024-01-11T04:08:15;26.27;;;12.60;;
39982;SDS011;25670;44.782;10.356;2024-01-11T04:10:41;21.60;;;11.82;;
39982;SDS011;25670;44.782;10.356;2024-01-11T04:13:07;23.90;;;11.77;;
39982;SDS011;25670;44.782;10.356;2024-01-11T04:15:34;27.48;;;12.38;;
39982;SDS011;25670;44.782;10.356;2024-01-11T04:18:00;24.30;;;13.13;;
39982;SDS011;25670;44.782;10.356;2024-01-11T04:20:26;25.80;;;12.55;;
39982;SDS011;25670;44.782;10.356;2024-01-11T04:22:52;22.50;;;12.40;;
39982;SDS011;25670;44.782;10.356;2024-01-11T04:25:18;22.02;;;11.57;;
39982;SDS011;25670;44.782;10.356;2024-01-11T04:27:46;20.58;;;11.77;;
39982;SDS011;25670;44.782;10.356;2024-01-11T04:30:12;27.58;;;12.63;;
39982;SDS011;25670;44.782;10.356;2024-01-11T04:32:38;19.20;;;10.85;;
39982;SDS011;25670;44.782;10.356;2024-01-11T04:35:04;21.48;;;12.35;;
39982;SDS011;25670;44.782;10.356;2024-01-11T04:37:31;21.15;;;11.20;;
39982;SDS011;25670;44.782;10.356;2024-01-11T04:39:57;28.45;;;11.80;;
39982;SDS011;25670;44.782;10.356;2024-01-11T04:42:26;23.80;;;11.82;;
39982;SDS011;25670;44.782;10.356;2024-01-11T04:44:53;26.50;;;12.30;;
39982;SDS011;25670;44.782;10.356;2024-01-11T04:47:19;24.80;;;11.45;;
39982;SDS011;25670;44.782;10.356;2024-01-11T04:49:46;22.35;;;11.45;;
39982;SDS011;25670;44.782;10.356;2024-01-11T04:52:12;23.50;;;11.05;;
39982;SDS011;25670;44.782;10.356;2024-01-11T04:54:38;23.67;;;11.00;;
39982;SDS011;25670;44.782;10.356;2024-01-11T04:57:05;24.58;;;11.25;;
39982;SDS011;25670;44.782;10.356;2024-01-11T04:59:31;30.13;;;11.35;;
39982;SDS011;25670;44.782;10.356;2024-01-11T05:01:58;20.98;;;12.02;;
39982;SDS011;25670;44.782;10.356;2024-01-11T05:04:24;26.50;;;12.05;;
39982;SDS011;25670;44.782;10.356;2024-01-11T05:06:51;18.40;;;10.18;;
39982;SDS011;25670;44.782;10.356;2024-01-11T05:09:17;21.85;;;11.57;;
39982;SDS011;25670;44.782;10.356;2024-01-11T05:11:43;20.52;;;10.93;;
39982;SDS011;25670;44.782;10.356;2024-01-11T05:14:10;19.50;;;10.85;;
39982;SDS011;25670;44.782;10.356;2024-01-11T05:16:36;19.58;;;11.00;;
39982;SDS011;25670;44.782;10.356;2024-01-11T05:19:02;35.00;;;11.57;;
39982;SDS011;25670;44.782;10.356;2024-01-11T05:21:28;23.58;;;11.23;;
39982;SDS011;25670;44.782;10.356;2024-01-11T05:23:54;20.73;;;11.35;;
39982;SDS011;25670;44.782;10.356;2024-01-11T05:26:21;24.20;;;11.40;;
39982;SDS011;25670;44.782;10.356;2024-01-11T05:28:47;22.98;;;10.45;;
39982;SDS011;25670;44.782;10.356;2024-01-11T05:31:14;21.20;;;11.68;;
39982;SDS011;25670;44.782;10.356;2024-01-11T05:33:41;23.35;;;10.77;;
39982;SDS011;25670;44.782;10.356;2024-01-11T05:36:07;19.63;;;10.85;;
39982;SDS011;25670;44.782;10.356;2024-01-11T05:38:34;18.60;;;10.18;;
39982;SDS011;25670;44.782;10.356;2024-01-11T05:41:01;16.73;;;10.82;;
39982;SDS011;25670;44.782;10.356;2024-01-11T05:43:27;26.90;;;11.13;;
39982;SDS011;25670;44.782;10.356;2024-01-11T05:45:54;21.08;;;11.20;;
39982;SDS011;25670;44.782;10.356;2024-01-11T05:48:20;22.85;;;11.73;;
39982;SDS011;25670;44.782;10.356;2024-01-11T05:50:46;25.80;;;11.15;;
39982;SDS011;25670;44.782;10.356;2024-01-11T05:53:13;17.27;;;11.00;;
39982;SDS011;25670;44.782;10.356;2024-01-11T05:55:39;21.42;;;11.60;;
39982;SDS011;25670;44.782;10.356;2024-01-11T05:58:06;21.98;;;10.48;;
39982;SDS011;25670;44.782;10.356;2024-01-11T06:00:32;22.70;;;11.82;;
39982;SDS011;25670;44.782;10.356;2024-01-11T06:02:59;22.83;;;11.70;;
39982;SDS011;25670;44.782;10.356;2024-01-11T06:05:25;20.83;;;10.57;;
39982;SDS011;25670;44.782;10.356;2024-01-11T06:07:52;25.80;;;10.95;;
39982;SDS011;25670;44.782;10.356;2024-01-11T06:10:18;24.05;;;10.52;;
39982;SDS011;25670;44.782;10.356;2024-01-11T06:12:44;18.80;;;10.75;;
39982;SDS011;25670;44.782;10.356;2024-01-11T06:15:10;19.60;;;10.77;;
39982;SDS011;25670;44.782;10.356;2024-01-11T06:17:36;25.73;;;12.00;;
39982;SDS011;25670;44.782;10.356;2024-01-11T06:20:03;23.65;;;11.38;;
39982;SDS011;25670;44.782;10.356;2024-01-11T06:22:30;17.50;;;10.88;;
39982;SDS011;25670;44.782;10.356;2024-01-11T06:24:56;21.17;;;10.30;;
39982;SDS011;25670;44.782;10.356;2024-01-11T06:27:24;19.23;;;11.20;;
39982;SDS011;25670;44.782;10.356;2024-01-11T06:29:51;31.55;;;12.50;;
39982;SDS011;25670;44.782;10.356;2024-01-11T06:32:17;21.73;;;12.27;;
39982;SDS011;25670;44.782;10.356;2024-01-11T06:34:44;18.15;;;10.80;;
39982;SDS011;25670;44.782;10.356;2024-01-11T06:37:12;19.30;;;10.95;;
39982;SDS011;25670;44.782;10.356;2024-01-11T06:39:38;24.27;;;11.70;;
39982;SDS011;25670;44.782;10.356;2024-01-11T06:42:04;24.27;;;10.70;;
39982;SDS011;25670;44.782;10.356;2024-01-11T06:44:31;23.83;;;12.00;;
39982;SDS011;25670;44.782;10.356;2024-01-11T06:46:57;18.65;;;10.32;;
39982;SDS011;25670;44.782;10.356;2024-01-11T06:49:23;30.38;;;11.90;;
39982;SDS011;25670;44.782;10.356;2024-01-11T06:51:50;28.88;;;13.05;;
39982;SDS011;25670;44.782;10.356;2024-01-11T06:54:16;20.15;;;11.93;;
39982;SDS011;25670;44.782;10.356;2024-01-11T06:56:42;31.63;;;12.25;;
39982;SDS011;25670;44.782;10.356;2024-01-11T06:59:08;28.88;;;12.82;;
39982;SDS011;25670;44.782;10.356;2024-01-11T07:01:35;29.58;;;12.95;;
39982;SDS011;25670;44.782;10.356;2024-01-11T07:04:01;26.83;;;11.93;;
39982;SDS011;25670;44.782;10.356;2024-01-11T07:06:27;23.35;;;12.05;;
39982;SDS011;25670;44.782;10.356;2024-01-11T07:08:54;27.23;;;13.18;;
39982;SDS011;25670;44.782;10.356;2024-01-11T07:11:20;28.13;;;13.32;;
39982;SDS011;25670;44.782;10.356;2024-01-11T07:13:46;31.58;;;12.85;;
39982;SDS011;25670;44.782;10.356;2024-01-11T07:16:12;26.40;;;13.73;;
39982;SDS011;25670;44.782;10.356;2024-01-11T07:18:39;29.60;;;12.98;;
39982;SDS011;25670;44.782;10.356;2024-01-11T07:21:06;31.52;;;14.18;;
39982;SDS011;25670;44.782;10.356;2024-01-11T07:23:32;31.10;;;13.65;;
39982;SDS011;25670;44.782;10.356;2024-01-11T07:25:58;32.25;;;13.82;;
39982;SDS011;25670;44.782;10.356;2024-01-11T07:28:25;29.88;;;13.70;;
39982;SDS011;25670;44.782;10.356;2024-01-11T07:30:52;28.40;;;14.15;;
39982;SDS011;25670;44.782;10.356;2024-01-11T07:33:19;38.35;;;13.70;;
39982;SDS011;25670;44.782;10.356;2024-01-11T07:35:46;32.08;;;14.48;;
39982;SDS011;25670;44.782;10.356;2024-01-11T07:38:13;23.52;;;13.38;;
39982;SDS011;25670;44.782;10.356;2024-01-11T07:40:39;33.22;;;14.10;;
39982;SDS011;25670;44.782;10.356;2024-01-11T07:43:05;24.73;;;12.65;;
39982;SDS011;25670;44.782;10.356;2024-01-11T07:45:32;30.92;;;14.45;;
39982;SDS011;25670;44.782;10.356;2024-01-11T07:47:58;23.35;;;13.32;;
39982;SDS011;25670;44.782;10.356;2024-01-11T07:50:25;33.95;;;14.93;;
39982;SDS011;25670;44.782;10.356;2024-01-11T07:52:51;31.77;;;13.68;;
39982;SDS011;25670;44.782;10.356;2024-01-11T07:55:17;28.13;;;13.55;;
39982;SDS011;25670;44.782;10.356;2024-01-11T07:57:49;29.38;;;13.07;;
39982;SDS011;25670;44.782;10.356;2024-01-11T08:00:15;35.40;;;13.73;;
39982;SDS011;25670;44.782;10.356;2024-01-11T08:02:42;33.13;;;12.95;;
39982;SDS011;25670;44.782;10.356;2024-01-11T08:05:08;25.30;;;11.85;;
39982;SDS011;25670;44.782;10.356;2024-01-11T08:07:35;25.88;;;12.70;;
39982;SDS011;25670;44.782;10.356;2024-01-11T08:10:01;28.73;;;12.95;;
39982;SDS011;25670;44.782;10.356;2024-01-11T08:12:29;24.75;;;13.10;;
39982;SDS011;25670;44.782;10.356;2024-01-11T08:14:56;38.00;;;13.18;;
39982;SDS011;25670;44.782;10.356;2024-01-11T08:17:22;20.15;;;12.32;;
39982;SDS011;25670;44.782;10.356;2024-01-11T08:19:48;29.20;;;12.77;;
39982;SDS011;25670;44.782;10.356;2024-01-11T08:22:14;24.58;;;12.23;;
39982;SDS011;25670;44.782;10.356;2024-01-11T08:24:41;25.80;;;12.80;;
39982;SDS011;25670;44.782;10.356;2024-01-11T08:27:07;26.50;;;12.20;;
39982;SDS011;25670;44.782;10.356;2024-01-11T08:29:33;24.63;;;11.85;;
39982;SDS011;25670;44.782;10.356;2024-01-11T08:32:00;21.67;;;13.25;;
39982;SDS011;25670;44.782;10.356;2024-01-11T08:34:30;26.23;;;12.95;;
39982;SDS011;25670;44.782;10.356;2024-01-11T08:36:56;23.13;;;12.35;;
39982;SDS011;25670;44.782;10.356;2024-01-11T08:39:22;28.65;;;12.80;;
39982;SDS011;25670;44.782;10.356;2024-01-11T08:41:48;25.35;;;12.23;;
39982;SDS011;25670;44.782;10.356;2024-01-11T08:44:15;25.65;;;13.18;;
39982;SDS011;25670;44.782;10.356;2024-01-11T08:46:41;23.35;;;12.70;;
39982;SDS011;25670;44.782;10.356;2024-01-11T08:49:09;25.02;;;13.02;;
39982;SDS011;25670;44.782;10.356;2024-01-11T08:51:35;21.20;;;12.75;;
39982;SDS011;25670;44.782;10.356;2024-01-11T08:54:02;20.13;;;12.32;;
39982;SDS011;25670;44.782;10.356;2024-01-11T08:56:28;22.15;;;11.80;;
39982;SDS011;25670;44.782;10.356;2024-01-11T08:58:54;19.95;;;11.55;;
39982;SDS011;25670;44.782;10.356;2024-01-11T09:01:20;21.52;;;11.35;;
39982;SDS011;25670;44.782;10.356;2024-01-11T09:03:47;19.08;;;11.88;;
39982;SDS011;25670;44.782;10.356;2024-01-11T09:06:14;22.85;;;11.90;;
39982;SDS011;25670;44.782;10.356;2024-01-11T09:08:40;21.63;;;12.30;;
39982;SDS011;25670;44.782;10.356;2024-01-11T09:11:09;20.55;;;11.20;;
39982;SDS011;25670;44.782;10.356;2024-01-11T09:13:38;24.00;;;12.82;;
39982;SDS011;25670;44.782;10.356;2024-01-11T09:16:05;24.88;;;12.48;;
39982;SDS011;25670;44.782;10.356;2024-01-11T09:18:32;25.45;;;12.18;;
39982;SDS011;25670;44.782;10.356;2024-01-11T09:20:59;26.40;;;11.70;;
39982;SDS011;25670;44.782;10.356;2024-01-11T09:23:25;23.70;;;11.77;;
39982;SDS011;25670;44.782;10.356;2024-01-11T09:25:51;23.77;;;11.57;;
39982;SDS011;25670;44.782;10.356;2024-01-11T09:28:17;19.23;;;10.68;;
39982;SDS011;25670;44.782;10.356;2024-01-11T09:30:44;23.48;;;11.55;;
39982;SDS011;25670;44.782;10.356;2024-01-11T09:33:10;22.35;;;11.43;;
39982;SDS011;25670;44.782;10.356;2024-01-11T09:35:37;19.60;;;12.18;;
39982;SDS011;25670;44.782;10.356;2024-01-11T09:38:03;25.83;;;12.02;;
39982;SDS011;25670;44.782;10.356;2024-01-11T09:40:29;25.42;;;12.20;;
39982;SDS011;25670;44.782;10.356;2024-01-11T09:42:55;21.33;;;11.70;;
39982;SDS011;25670;44.782;10.356;2024-01-11T09:45:22;20.38;;;11.27;;
39982;SDS011;25670;44.782;10.356;2024-01-11T09:47:48;25.40;;;12.50;;
39982;SDS011;25670;44.782;10.356;2024-01-11T09:50:16;17.20;;;11.30;;
39982;SDS011;25670;44.782;10.356;2024-01-11T09:52:49;19.90;;;11.57;;
39982;SDS011;25670;44.782;10.356;2024-01-11T09:55:16;20.77;;;10.23;;
39982;SDS011;25670;44.782;10.356;2024-01-11T09:57:44;18.52;;;10.82;;
39982;SDS011;25670;44.782;10.356;2024-01-11T10:00:13;18.52;;;11.27;;
39982;SDS011;25670;44.782;10.356;2024-01-11T10:02:42;18.80;;;10.15;;
39982;SDS011;25670;44.782;10.356;2024-01-11T10:05:08;18.38;;;10.90;;
39982;SDS011;25670;44.782;10.356;2024-01-11T10:07:34;21.33;;;11.38;;
39982;SDS011;25670;44.782;10.356;2024-01-11T10:10:02;22.45;;;12.43;;
39982;SDS011;25670;44.782;10.356;2024-01-11T10:12:29;23.42;;;11.95;;
39982;SDS011;25670;44.782;10.356;2024-01-11T10:15:00;19.17;;;12.07;;
39982;SDS011;25670;44.782;10.356;2024-01-11T10:17:31;16.20;;;11.43;;
39982;SDS011;25670;44.782;10.356;2024-01-11T10:19:58;17.67;;;11.68;;
39982;SDS011;25670;44.782;10.356;2024-01-11T10:22:25;18.23;;;12.05;;
39982;SDS011;25670;44.782;10.356;2024-01-11T10:24:51;16.52;;;11.05;;
39982;SDS011;25670;44.782;10.356;2024-01-11T10:27:37;21.85;;;12.52;;
39982;SDS011;25670;44.782;10.356;2024-01-11T10:30:05;24.25;;;12.50;;
39982;SDS011;25670;44.782;10.356;2024-01-11T10:32:33;31.20;;;13.52;;
39982;SDS011;25670;44.782;10.356;2024-01-11T10:35:04;26.45;;;14.07;;
39982;SDS011;25670;44.782;10.356;2024-01-11T10:37:31;23.95;;;13.52;;
39982;SDS011;25670;44.782;10.356;2024-01-11T10:40:04;23.77;;;13.88;;
39982;SDS011;25670;44.782;10.356;2024-01-11T10:42:44;20.88;;;13.52;;
39982;SDS011;25670;44.782;10.356;2024-01-11T10:45:15;24.73;;;13.70;;
39982;SDS011;25670;44.782;10.356;2024-01-11T10:47:53;28.83;;;15.25;;
39982;SDS011;25670;44.782;10.356;2024-01-11T10:50:23;28.35;;;14.75;;
39982;SDS011;25670;44.782;10.356;2024-01-11T10:53:02;23.40;;;15.35;;
39982;SDS011;25670;44.782;10.356;2024-01-11T10:55:32;26.67;;;14.95;;
39982;SDS011;25670;44.782;10.356;2024-01-11T10:58:00;26.58;;;15.07;;
39982;SDS011;25670;44.782;10.356;2024-01-11T11:00:30;30.92;;;14.65;;
39982;SDS011;25670;44.782;10.356;2024-01-11T11:02:58;25.27;;;15.20;;
39982;SDS011;25670;44.782;10.356;2024-01-11T11:05:28;25.63;;;15.18;;
39982;SDS011;25670;44.782;10.356;2024-01-11T11:07:56;25.75;;;14.45;;
39982;SDS011;25670;44.782;10.356;2024-01-11T11:10:23;20.55;;;13.75;;
39982;SDS011;25670;44.782;10.356;2024-01-11T11:12:51;20.65;;;13.43;;
39982;SDS011;25670;44.782;10.356;2024-01-11T11:15:23;23.05;;;13.90;;
39982;SDS011;25670;44.782;10.356;2024-01-11T11:17:49;20.90;;;13.15;;
39982;SDS011;25670;44.782;10.356;2024-01-11T11:20:16;22.38;;;13.27;;
39982;SDS011;25670;44.782;10.356;2024-01-11T11:22:42;23.30;;;13.15;;
39982;SDS011;25670;44.782;10.356;2024-01-11T11:25:09;26.30;;;14.85;;
39982;SDS011;25670;44.782;10.356;2024-01-11T11:27:38;24.70;;;14.27;;
39982;SDS011;25670;44.782;10.356;2024-01-11T11:30:05;18.42;;;12.90;;
39982;SDS011;25670;44.782;10.356;2024-01-11T11:32:35;25.67;;;14.07;;
39982;SDS011;25670;44.782;10.356;2024-01-11T11:35:07;23.45;;;14.25;;
39982;SDS011;25670;44.782;10.356;2024-01-11T11:37:38;23.15;;;14.45;;
39982;SDS011;25670;44.782;10.356;2024-01-11T11:40:05;25.08;;;13.70;;
39982;SDS011;25670;44.782;10.356;2024-01-11T11:42:34;21.35;;;13.75;;
39982;SDS011;25670;44.782;10.356;2024-01-11T11:45:01;32.33;;;14.15;;
39982;SDS011;25670;44.782;10.356;2024-01-11T11:47:33;22.20;;;14.63;;
39982;SDS011;25670;44.782;10.356;2024-01-11T11:50:10;22.23;;;14.13;;
39982;SDS011;25670;44.782;10.356;2024-01-11T11:52:37;27.95;;;14.93;;
39982;SDS011;25670;44.782;10.356;2024-01-11T11:55:05;19.60;;;13.40;;
39982;SDS011;25670;44.782;10.356;2024-01-11T11:57:33;26.48;;;14.73;;
39982;SDS011;25670;44.782;10.356;2024-01-11T12:00:00;24.25;;;14.48;;
39982;SDS011;25670;44.782;10.356;2024-01-11T12:02:38;21.48;;;14.48;;
39982;SDS011;25670;44.782;10.356;2024-01-11T12:05:05;22.13;;;13.88;;
39982;SDS011;25670;44.782;10.356;2024-01-11T12:07:31;23.63;;;13.88;;
39982;SDS011;25670;44.782;10.356;2024-01-11T12:09:57;24.17;;;14.95;;
39982;SDS011;25670;44.782;10.356;2024-01-11T12:12:24;25.67;;;14.65;;
39982;SDS011;25670;44.782;10.356;2024-01-11T12:14:50;24.35;;;13.98;;
39982;SDS011;25670;44.782;10.356;2024-01-11T12:17:16;25.10;;;14.93;;
39982;SDS011;25670;44.782;10.356;2024-01-11T12:19:42;29.83;;;13.63;;
39982;SDS011;25670;44.782;10.356;2024-01-11T12:22:09;24.52;;;14.82;;
39982;SDS011;25670;44.782;10.356;2024-01-11T12:24:35;26.52;;;14.88;;
39982;SDS011;25670;44.782;10.356;2024-01-11T12:27:02;21.70;;;14.80;;
39982;SDS011;25670;44.782;10.356;2024-01-11T12:29:29;28.77;;;14.52;;
39982;SDS011;25670;44.782;10.356;2024-01-11T12:31:56;26.20;;;14.32;;
39982;SDS011;25670;44.782;10.356;2024-01-11T12:34:24;25.67;;;14.82;;
39982;SDS011;25670;44.782;10.356;2024-01-11T12:36:52;21.23;;;14.10;;
39982;SDS011;25670;44.782;10.356;2024-01-11T12:39:20;23.00;;;14.50;;
39982;SDS011;25670;44.782;10.356;2024-01-11T12:41:51;25.30;;;14.70;;
39982;SDS011;25670;44.782;10.356;2024-01-11T12:44:20;19.90;;;12.68;;
39982;SDS011;25670;44.782;10.356;2024-01-11T12:46:49;18.98;;;11.98;;
39982;SDS011;25670;44.782;10.356;2024-01-11T12:51:44;17.58;;;10.75;;
39982;SDS011;25670;44.782;10.356;2024-01-11T12:54:13;22.02;;;12.60;;
39982;SDS011;25670;44.782;10.356;2024-01-11T12:56:45;21.50;;;14.27;;
39982;SDS011;25670;44.782;10.356;2024-01-11T12:59:12;24.23;;;15.13;;
39982;SDS011;25670;44.782;10.356;2024-01-11T13:01:40;22.38;;;14.63;;
39982;SDS011;25670;44.782;10.356;2024-01-11T13:04:09;19.17;;;13.75;;
39982;SDS011;25670;44.782;10.356;2024-01-11T13:06:36;26.33;;;13.30;;
39982;SDS011;25670;44.782;10.356;2024-01-11T13:09:02;22.83;;;13.82;;
39982;SDS011;25670;44.782;10.356;2024-01-11T13:11:29;20.17;;;14.30;;
39982;SDS011;25670;44.782;10.356;2024-01-11T13:13:56;20.60;;;14.82;;
39982;SDS011;25670;44.782;10.356;2024-01-11T13:16:24;15.88;;;13.23;;
39982;SDS011;25670;44.782;10.356;2024-01-11T13:18:51;21.30;;;14.18;;
39982;SDS011;25670;44.782;10.356;2024-01-11T13:21:17;19.55;;;14.07;;
39982;SDS011;25670;44.782;10.356;2024-01-11T13:23:43;21.20;;;14.35;;
39982;SDS011;25670;44.782;10.356;2024-01-11T13:26:09;17.02;;;13.98;;
39982;SDS011;25670;44.782;10.356;2024-01-11T13:28:36;18.33;;;14.00;;
39982;SDS011;25670;44.782;10.356;2024-01-11T13:31:02;16.92;;;12.20;;
39982;SDS011;25670;44.782;10.356;2024-01-11T13:33:28;15.05;;;12.32;;
39982;SDS011;25670;44.782;10.356;2024-01-11T13:35:54;17.35;;;13.85;;
39982;SDS011;25670;44.782;10.356;2024-01-11T13:38:21;17.58;;;14.25;;
39982;SDS011;25670;44.782;10.356;2024-01-11T13:40:47;19.02;;;14.40;;
39982;SDS011;25670;44.782;10.356;2024-01-11T13:43:14;20.65;;;14.15;;
39982;SDS011;25670;44.782;10.356;2024-01-11T13:45:40;18.83;;;14.32;;
39982;SDS011;25670;44.782;10.356;2024-01-11T13:48:06;20.88;;;15.27;;
39982;SDS011;25670;44.782;10.356;2024-01-11T13:50:33;21.02;;;15.90;;
39982;SDS011;25670;44.782;10.356;2024-01-11T13:52:59;21.33;;;15.32;;
39982;SDS011;25670;44.782;10.356;2024-01-11T13:55:26;19.25;;;14.77;;
39982;SDS011;25670;44.782;10.356;2024-01-11T13:57:52;20.02;;;15.27;;
39982;SDS011;25670;44.782;10.356;2024-01-11T14:00:19;20.40;;;14.52;;
39982;SDS011;25670;44.782;10.356;2024-01-11T14:02:46;23.48;;;15.20;;
39982;SDS011;25670;44.782;10.356;2024-01-11T14:05:13;20.88;;;15.63;;
39982;SDS011;25670;44.782;10.356;2024-01-11T14:07:41;23.30;;;15.40;;
39982;SDS011;25670;44.782;10.356;2024-01-11T14:10:08;19.95;;;15.23;;